sensor_id;sensor_type;location;lat;lon;timestamp;P1;durP1;ratioP1;P2;durP2;ratioP2
15307;SDS011;7755;52.208;6.964;2022-11-15T00:02:51;17.60;;;15.43;;
15307;SDS011;7755;52.208;6.964;2022-11-15T00:07:12;20.47;;;16.67;;
15307;SDS011;7755;52.208;6.964;2022-11-15T00:11:54;19.93;;;17.13;;
15307;SDS011;7755;52.208;6.964;2022-11-15T00:16:17;19.23;;;16.00;;
15307;SDS011;7755;52.208;6.964;2022-11-15T00:20:38;19.10;;;16.60;;
15307;SDS011;7755;52.208;6.964;2022-11-15T00:25:00;22.50;;;17.43;;
15307;SDS011;7755;52.208;6.964;2022-11-15T00:29:23;20.87;;;16.77;;
15307;SDS011;7755;52.208;6.964;2022-11-15T00:33:46;20.73;;;17.93;;
15307;SDS011;7755;52.208;6.964;2022-11-15T00:38:07;20.97;;;18.73;;
15307;SDS011;7755;52.208;6.964;2022-11-15T00:42:29;25.17;;;19.17;;
15307;SDS011;7755;52.208;6.964;2022-11-15T00:46:50;25.87;;;19.77;;
15307;SDS011;7755;52.208;6.964;2022-11-15T00:51:12;29.10;;;21.77;;
15307;SDS011;7755;52.208;6.964;2022-11-15T00:55:34;26.83;;;20.93;;
15307;SDS011;7755;52.208;6.964;2022-11-15T00:59:55;26.13;;;20.57;;
15307;SDS011;7755;52.208;6.964;2022-11-15T01:04:16;26.10;;;20.40;;
15307;SDS011;7755;52.208;6.964;2022-11-15T01:08:39;23.33;;;18.97;;
15307;SDS011;7755;52.208;6.964;2022-11-15T01:13:00;28.10;;;21.73;;
15307;SDS011;7755;52.208;6.964;2022-11-15T01:17:22;28.10;;;19.67;;
15307;SDS011;7755;52.208;6.964;2022-11-15T01:21:43;28.50;;;20.77;;
15307;SDS011;7755;52.208;6.964;2022-11-15T01:26:07;23.97;;;18.70;;
15307;SDS011;7755;52.208;6.964;2022-11-15T01:30:30;24.60;;;19.90;;
15307;SDS011;7755;52.208;6.964;2022-11-15T01:34:51;30.93;;;20.60;;
15307;SDS011;7755;52.208;6.964;2022-11-15T01:39:12;26.57;;;21.47;;
15307;SDS011;7755;52.208;6.964;2022-11-15T01:43:36;24.00;;;20.03;;
15307;SDS011;7755;52.208;6.964;2022-11-15T01:47:57;21.87;;;18.27;;
15307;SDS011;7755;52.208;6.964;2022-11-15T01:52:19;24.67;;;19.77;;
15307;SDS011;7755;52.208;6.964;2022-11-15T01:56:44;21.60;;;19.10;;
15307;SDS011;7755;52.208;6.964;2022-11-15T02:01:09;27.03;;;19.97;;
15307;SDS011;7755;52.208;6.964;2022-11-15T02:05:31;22.67;;;18.53;;
15307;SDS011;7755;52.208;6.964;2022-11-15T02:09:54;32.13;;;28.77;;
15307;SDS011;7755;52.208;6.964;2022-11-15T02:14:17;21.63;;;18.90;;
15307;SDS011;7755;52.208;6.964;2022-11-15T02:18:44;23.83;;;20.20;;
15307;SDS011;7755;52.208;6.964;2022-11-15T02:23:15;22.80;;;19.77;;
15307;SDS011;7755;52.208;6.964;2022-11-15T02:28:06;21.60;;;19.30;;
15307;SDS011;7755;52.208;6.964;2022-11-15T02:32:44;23.63;;;19.20;;
15307;SDS011;7755;52.208;6.964;2022-11-15T02:37:11;22.80;;;19.37;;
15307;SDS011;7755;52.208;6.964;2022-11-15T02:41:39;22.97;;;19.53;;
15307;SDS011;7755;52.208;6.964;2022-11-15T02:46:13;27.97;;;20.23;;
15307;SDS011;7755;52.208;6.964;2022-11-15T02:50:40;24.60;;;19.97;;
15307;SDS011;7755;52.208;6.964;2022-11-15T02:55:03;23.33;;;19.93;;
15307;SDS011;7755;52.208;6.964;2022-11-15T02:59:47;26.13;;;20.77;;
15307;SDS011;7755;52.208;6.964;2022-11-15T03:04:23;22.23;;;19.90;;
15307;SDS011;7755;52.208;6.964;2022-11-15T03:09:01;21.33;;;17.53;;
15307;SDS011;7755;52.208;6.964;2022-11-15T03:13:26;23.73;;;19.40;;
15307;SDS011;7755;52.208;6.964;2022-11-15T03:17:52;21.13;;;18.83;;
15307;SDS011;7755;52.208;6.964;2022-11-15T03:22:20;22.00;;;18.67;;
15307;SDS011;7755;52.208;6.964;2022-11-15T03:26:46;22.03;;;18.53;;
15307;SDS011;7755;52.208;6.964;2022-11-15T03:31:09;20.97;;;18.20;;
15307;SDS011;7755;52.208;6.964;2022-11-15T03:35:47;20.90;;;18.57;;
15307;SDS011;7755;52.208;6.964;2022-11-15T03:40:09;20.00;;;17.80;;
15307;SDS011;7755;52.208;6.964;2022-11-15T03:44:35;21.23;;;19.07;;
15307;SDS011;7755;52.208;6.964;2022-11-15T03:49:03;20.47;;;17.60;;
15307;SDS011;7755;52.208;6.964;2022-11-15T03:53:29;20.47;;;18.27;;
15307;SDS011;7755;52.208;6.964;2022-11-15T03:57:53;20.93;;;17.57;;
15307;SDS011;7755;52.208;6.964;2022-11-15T04:02:18;18.27;;;16.30;;
15307;SDS011;7755;52.208;6.964;2022-11-15T04:06:40;19.83;;;17.07;;
15307;SDS011;7755;52.208;6.964;2022-11-15T04:11:01;20.53;;;18.37;;
15307;SDS011;7755;52.208;6.964;2022-11-15T04:15:23;19.73;;;16.97;;
15307;SDS011;7755;52.208;6.964;2022-11-15T04:19:46;22.43;;;20.13;;
15307;SDS011;7755;52.208;6.964;2022-11-15T04:24:25;20.67;;;18.43;;
15307;SDS011;7755;52.208;6.964;2022-11-15T04:28:46;19.40;;;16.73;;
15307;SDS011;7755;52.208;6.964;2022-11-15T04:33:21;20.23;;;17.73;;
15307;SDS011;7755;52.208;6.964;2022-11-15T04:37:44;19.30;;;17.30;;
15307;SDS011;7755;52.208;6.964;2022-11-15T04:42:08;18.53;;;16.63;;
15307;SDS011;7755;52.208;6.964;2022-11-15T04:46:30;17.33;;;15.53;;
15307;SDS011;7755;52.208;6.964;2022-11-15T04:50:51;16.27;;;14.57;;
15307;SDS011;7755;52.208;6.964;2022-11-15T04:55:14;16.73;;;15.03;;
15307;SDS011;7755;52.208;6.964;2022-11-15T04:59:36;18.07;;;15.40;;
15307;SDS011;7755;52.208;6.964;2022-11-15T05:03:57;19.17;;;16.40;;
15307;SDS011;7755;52.208;6.964;2022-11-15T05:08:36;16.67;;;14.83;;
15307;SDS011;7755;52.208;6.964;2022-11-15T05:12:59;19.83;;;16.13;;
15307;SDS011;7755;52.208;6.964;2022-11-15T05:17:20;20.07;;;16.73;;
15307;SDS011;7755;52.208;6.964;2022-11-15T05:21:41;16.97;;;15.17;;
15307;SDS011;7755;52.208;6.964;2022-11-15T05:26:03;18.73;;;16.60;;
15307;SDS011;7755;52.208;6.964;2022-11-15T05:30:29;16.33;;;14.60;;
15307;SDS011;7755;52.208;6.964;2022-11-15T05:34:51;17.10;;;15.30;;
15307;SDS011;7755;52.208;6.964;2022-11-15T05:39:12;17.47;;;15.63;;
15307;SDS011;7755;52.208;6.964;2022-11-15T05:43:34;17.60;;;15.83;;
15307;SDS011;7755;52.208;6.964;2022-11-15T05:48:00;16.60;;;15.00;;
15307;SDS011;7755;52.208;6.964;2022-11-15T05:52:27;17.33;;;15.53;;
15307;SDS011;7755;52.208;6.964;2022-11-15T05:56:52;16.67;;;15.07;;
15307;SDS011;7755;52.208;6.964;2022-11-15T06:01:15;16.87;;;15.07;;
15307;SDS011;7755;52.208;6.964;2022-11-15T06:05:38;17.17;;;15.20;;
15307;SDS011;7755;52.208;6.964;2022-11-15T06:10:00;16.90;;;14.87;;
15307;SDS011;7755;52.208;6.964;2022-11-15T06:14:21;17.87;;;16.00;;
15307;SDS011;7755;52.208;6.964;2022-11-15T06:18:43;19.57;;;16.10;;
15307;SDS011;7755;52.208;6.964;2022-11-15T06:23:05;18.40;;;15.57;;
15307;SDS011;7755;52.208;6.964;2022-11-15T06:27:27;18.93;;;16.70;;
15307;SDS011;7755;52.208;6.964;2022-11-15T06:31:48;19.80;;;17.70;;
15307;SDS011;7755;52.208;6.964;2022-11-15T06:36:10;18.63;;;16.43;;
15307;SDS011;7755;52.208;6.964;2022-11-15T06:40:38;17.80;;;16.00;;
15307;SDS011;7755;52.208;6.964;2022-11-15T06:44:59;16.23;;;14.53;;
15307;SDS011;7755;52.208;6.964;2022-11-15T06:49:22;19.50;;;17.50;;
15307;SDS011;7755;52.208;6.964;2022-11-15T06:53:43;18.63;;;16.63;;
15307;SDS011;7755;52.208;6.964;2022-11-15T06:58:06;22.07;;;18.17;;
15307;SDS011;7755;52.208;6.964;2022-11-15T07:02:28;19.23;;;17.27;;
15307;SDS011;7755;52.208;6.964;2022-11-15T07:06:49;19.17;;;16.77;;
15307;SDS011;7755;52.208;6.964;2022-11-15T07:11:10;19.67;;;17.67;;
15307;SDS011;7755;52.208;6.964;2022-11-15T07:15:33;21.47;;;19.17;;
15307;SDS011;7755;52.208;6.964;2022-11-15T07:19:54;23.57;;;18.50;;
15307;SDS011;7755;52.208;6.964;2022-11-15T07:24:16;20.90;;;18.90;;
15307;SDS011;7755;52.208;6.964;2022-11-15T07:28:37;19.70;;;16.83;;
15307;SDS011;7755;52.208;6.964;2022-11-15T07:33:00;20.03;;;17.90;;
15307;SDS011;7755;52.208;6.964;2022-11-15T07:37:21;23.00;;;18.27;;
15307;SDS011;7755;52.208;6.964;2022-11-15T07:41:43;22.10;;;19.87;;
15307;SDS011;7755;52.208;6.964;2022-11-15T07:46:04;20.70;;;18.50;;
15307;SDS011;7755;52.208;6.964;2022-11-15T07:50:30;22.07;;;19.27;;
15307;SDS011;7755;52.208;6.964;2022-11-15T07:54:51;18.17;;;16.27;;
15307;SDS011;7755;52.208;6.964;2022-11-15T07:59:12;16.73;;;15.07;;
15307;SDS011;7755;52.208;6.964;2022-11-15T08:03:34;21.43;;;17.00;;
15307;SDS011;7755;52.208;6.964;2022-11-15T08:07:57;19.40;;;17.30;;
15307;SDS011;7755;52.208;6.964;2022-11-15T08:12:19;21.40;;;17.87;;
15307;SDS011;7755;52.208;6.964;2022-11-15T08:16:40;18.23;;;16.30;;
15307;SDS011;7755;52.208;6.964;2022-11-15T08:21:02;15.83;;;14.10;;
15307;SDS011;7755;52.208;6.964;2022-11-15T08:25:25;16.33;;;14.53;;
15307;SDS011;7755;52.208;6.964;2022-11-15T08:29:48;16.83;;;14.83;;
15307;SDS011;7755;52.208;6.964;2022-11-15T08:34:15;16.47;;;14.20;;
15307;SDS011;7755;52.208;6.964;2022-11-15T08:38:37;13.73;;;12.27;;
15307;SDS011;7755;52.208;6.964;2022-11-15T08:42:59;15.17;;;13.67;;
15307;SDS011;7755;52.208;6.964;2022-11-15T08:47:22;14.97;;;13.37;;
15307;SDS011;7755;52.208;6.964;2022-11-15T08:51:44;15.87;;;12.93;;
15307;SDS011;7755;52.208;6.964;2022-11-15T08:56:06;13.63;;;12.23;;
15307;SDS011;7755;52.208;6.964;2022-11-15T09:00:29;12.83;;;11.53;;
15307;SDS011;7755;52.208;6.964;2022-11-15T09:04:51;12.47;;;11.10;;
15307;SDS011;7755;52.208;6.964;2022-11-15T09:09:12;11.97;;;10.43;;
15307;SDS011;7755;52.208;6.964;2022-11-15T09:13:34;9.90;;;9.00;;
15307;SDS011;7755;52.208;6.964;2022-11-15T09:17:59;10.73;;;8.77;;
15307;SDS011;7755;52.208;6.964;2022-11-15T09:22:20;9.77;;;8.87;;
15307;SDS011;7755;52.208;6.964;2022-11-15T09:26:41;10.33;;;9.33;;
15307;SDS011;7755;52.208;6.964;2022-11-15T09:31:04;10.67;;;9.67;;
15307;SDS011;7755;52.208;6.964;2022-11-15T09:35:29;9.87;;;9.07;;
15307;SDS011;7755;52.208;6.964;2022-11-15T09:39:52;10.37;;;9.57;;
15307;SDS011;7755;52.208;6.964;2022-11-15T09:44:23;9.63;;;8.80;;
15307;SDS011;7755;52.208;6.964;2022-11-15T09:48:59;10.17;;;9.17;;
15307;SDS011;7755;52.208;6.964;2022-11-15T09:53:10;8.93;;;8.20;;
15307;SDS011;7755;52.208;6.964;2022-11-15T09:57:17;8.90;;;8.20;;
15307;SDS011;7755;52.208;6.964;2022-11-15T10:01:28;8.67;;;7.87;;
15307;SDS011;7755;52.208;6.964;2022-11-15T10:05:39;8.23;;;7.53;;
15307;SDS011;7755;52.208;6.964;2022-11-15T10:09:47;7.37;;;6.77;;
15307;SDS011;7755;52.208;6.964;2022-11-15T10:13:56;7.47;;;6.87;;
15307;SDS011;7755;52.208;6.964;2022-11-15T10:18:13;5.40;;;4.90;;
15307;SDS011;7755;52.208;6.964;2022-11-15T10:22:23;6.03;;;5.53;;
15307;SDS011;7755;52.208;6.964;2022-11-15T10:26:30;5.83;;;5.23;;
15307;SDS011;7755;52.208;6.964;2022-11-15T10:30:33;6.20;;;5.60;;
15307;SDS011;7755;52.208;6.964;2022-11-15T10:34:37;5.83;;;5.00;;
15307;SDS011;7755;52.208;6.964;2022-11-15T10:38:49;4.87;;;4.30;;
15307;SDS011;7755;52.208;6.964;2022-11-15T10:43:04;4.37;;;3.97;;
15307;SDS011;7755;52.208;6.964;2022-11-15T10:47:25;4.40;;;4.00;;
15307;SDS011;7755;52.208;6.964;2022-11-15T10:51:33;4.20;;;3.83;;
15307;SDS011;7755;52.208;6.964;2022-11-15T10:55:46;5.47;;;3.77;;
15307;SDS011;7755;52.208;6.964;2022-11-15T10:59:52;5.60;;;3.80;;
15307;SDS011;7755;52.208;6.964;2022-11-15T11:03:58;3.73;;;2.80;;
15307;SDS011;7755;52.208;6.964;2022-11-15T11:08:03;3.97;;;3.30;;
15307;SDS011;7755;52.208;6.964;2022-11-15T11:12:09;3.93;;;3.20;;
15307;SDS011;7755;52.208;6.964;2022-11-15T11:16:21;3.50;;;3.00;;
15307;SDS011;7755;52.208;6.964;2022-11-15T11:20:41;3.10;;;2.40;;
15307;SDS011;7755;52.208;6.964;2022-11-15T11:24:53;3.07;;;2.67;;
15307;SDS011;7755;52.208;6.964;2022-11-15T11:29:10;2.50;;;2.30;;
15307;SDS011;7755;52.208;6.964;2022-11-15T11:33:24;2.17;;;1.97;;
15307;SDS011;7755;52.208;6.964;2022-11-15T11:37:35;3.03;;;2.40;;
15307;SDS011;7755;52.208;6.964;2022-11-15T11:41:43;2.43;;;2.27;;
15307;SDS011;7755;52.208;6.964;2022-11-15T11:46:03;3.37;;;2.97;;
15307;SDS011;7755;52.208;6.964;2022-11-15T11:50:17;3.33;;;2.87;;
15307;SDS011;7755;52.208;6.964;2022-11-15T11:54:22;6.23;;;3.83;;
15307;SDS011;7755;52.208;6.964;2022-11-15T11:58:33;4.17;;;3.20;;
15307;SDS011;7755;52.208;6.964;2022-11-15T12:02:39;3.70;;;3.40;;
15307;SDS011;7755;52.208;6.964;2022-11-15T12:06:47;4.93;;;4.50;;
15307;SDS011;7755;52.208;6.964;2022-11-15T12:10:54;5.37;;;4.87;;
15307;SDS011;7755;52.208;6.964;2022-11-15T12:15:04;6.00;;;5.40;;
15307;SDS011;7755;52.208;6.964;2022-11-15T12:19:14;5.13;;;4.73;;
15307;SDS011;7755;52.208;6.964;2022-11-15T12:23:19;5.67;;;5.10;;
15307;SDS011;7755;52.208;6.964;2022-11-15T12:27:26;4.90;;;4.50;;
15307;SDS011;7755;52.208;6.964;2022-11-15T12:31:36;5.03;;;4.63;;
15307;SDS011;7755;52.208;6.964;2022-11-15T12:35:42;5.60;;;5.10;;
15307;SDS011;7755;52.208;6.964;2022-11-15T12:40:16;5.30;;;4.90;;
15307;SDS011;7755;52.208;6.964;2022-11-15T12:44:56;5.23;;;4.73;;
15307;SDS011;7755;52.208;6.964;2022-11-15T12:49:01;3.97;;;3.67;;
15307;SDS011;7755;52.208;6.964;2022-11-15T12:57:34;3.33;;;3.13;;
15307;SDS011;7755;52.208;6.964;2022-11-15T13:01:59;3.97;;;2.60;;
15307;SDS011;7755;52.208;6.964;2022-11-15T13:06:07;2.83;;;2.60;;
15307;SDS011;7755;52.208;6.964;2022-11-15T13:14:42;2.90;;;2.70;;
15307;SDS011;7755;52.208;6.964;2022-11-15T13:18:52;2.87;;;2.67;;
15307;SDS011;7755;52.208;6.964;2022-11-15T13:23:00;2.70;;;2.50;;
15307;SDS011;7755;52.208;6.964;2022-11-15T13:27:12;2.93;;;2.40;;
15307;SDS011;7755;52.208;6.964;2022-11-15T13:31:29;2.20;;;2.00;;
15307;SDS011;7755;52.208;6.964;2022-11-15T13:35:40;3.70;;;2.30;;
15307;SDS011;7755;52.208;6.964;2022-11-15T13:39:44;2.23;;;2.10;;
15307;SDS011;7755;52.208;6.964;2022-11-15T13:43:48;1.90;;;1.80;;
15307;SDS011;7755;52.208;6.964;2022-11-15T13:47:55;1.73;;;1.63;;
15307;SDS011;7755;52.208;6.964;2022-11-15T13:51:59;1.70;;;1.60;;
15307;SDS011;7755;52.208;6.964;2022-11-15T13:56:04;2.60;;;1.93;;
15307;SDS011;7755;52.208;6.964;2022-11-15T14:00:30;2.27;;;1.70;;
15307;SDS011;7755;52.208;6.964;2022-11-15T14:04:46;2.80;;;1.70;;
15307;SDS011;7755;52.208;6.964;2022-11-15T14:09:14;2.20;;;2.00;;
15307;SDS011;7755;52.208;6.964;2022-11-15T14:13:29;2.23;;;1.97;;
15307;SDS011;7755;52.208;6.964;2022-11-15T14:17:34;2.10;;;1.90;;
15307;SDS011;7755;52.208;6.964;2022-11-15T14:26:28;3.33;;;3.03;;
15307;SDS011;7755;52.208;6.964;2022-11-15T14:30:32;3.03;;;2.73;;
15307;SDS011;7755;52.208;6.964;2022-11-15T14:34:35;4.37;;;3.67;;
15307;SDS011;7755;52.208;6.964;2022-11-15T14:38:39;4.27;;;3.07;;
15307;SDS011;7755;52.208;6.964;2022-11-15T14:42:44;2.60;;;2.40;;
15307;SDS011;7755;52.208;6.964;2022-11-15T14:46:48;2.17;;;1.97;;
15307;SDS011;7755;52.208;6.964;2022-11-15T14:50:50;1.87;;;1.77;;
15307;SDS011;7755;52.208;6.964;2022-11-15T14:54:55;3.27;;;1.70;;
15307;SDS011;7755;52.208;6.964;2022-11-15T14:59:00;3.97;;;2.13;;
15307;SDS011;7755;52.208;6.964;2022-11-15T15:03:03;1.93;;;1.83;;
15307;SDS011;7755;52.208;6.964;2022-11-15T15:07:07;2.00;;;1.90;;
15307;SDS011;7755;52.208;6.964;2022-11-15T15:11:13;3.53;;;1.77;;
15307;SDS011;7755;52.208;6.964;2022-11-15T15:15:17;2.03;;;1.90;;
15307;SDS011;7755;52.208;6.964;2022-11-15T15:19:27;3.40;;;2.30;;
15307;SDS011;7755;52.208;6.964;2022-11-15T15:23:30;2.40;;;2.13;;
15307;SDS011;7755;52.208;6.964;2022-11-15T15:27:35;2.47;;;1.70;;
15307;SDS011;7755;52.208;6.964;2022-11-15T15:31:38;2.53;;;2.03;;
15307;SDS011;7755;52.208;6.964;2022-11-15T15:35:53;1.93;;;1.80;;
15307;SDS011;7755;52.208;6.964;2022-11-15T15:39:56;2.80;;;1.80;;
15307;SDS011;7755;52.208;6.964;2022-11-15T15:44:00;2.70;;;2.50;;
15307;SDS011;7755;52.208;6.964;2022-11-15T15:48:03;4.13;;;2.57;;
15307;SDS011;7755;52.208;6.964;2022-11-15T15:52:08;2.77;;;2.10;;
15307;SDS011;7755;52.208;6.964;2022-11-15T15:56:10;2.57;;;2.37;;
15307;SDS011;7755;52.208;6.964;2022-11-15T16:00:15;3.27;;;2.37;;
15307;SDS011;7755;52.208;6.964;2022-11-15T16:04:19;2.00;;;1.90;;
15307;SDS011;7755;52.208;6.964;2022-11-15T16:08:23;3.60;;;2.77;;
15307;SDS011;7755;52.208;6.964;2022-11-15T16:12:27;3.20;;;2.30;;
15307;SDS011;7755;52.208;6.964;2022-11-15T16:16:32;2.97;;;2.67;;
15307;SDS011;7755;52.208;6.964;2022-11-15T16:20:37;3.10;;;2.80;;
15307;SDS011;7755;52.208;6.964;2022-11-15T16:24:40;3.10;;;2.80;;
15307;SDS011;7755;52.208;6.964;2022-11-15T16:28:43;3.43;;;2.53;;
15307;SDS011;7755;52.208;6.964;2022-11-15T16:32:47;2.27;;;2.10;;
15307;SDS011;7755;52.208;6.964;2022-11-15T16:36:51;2.40;;;2.20;;
15307;SDS011;7755;52.208;6.964;2022-11-15T16:40:55;5.13;;;2.90;;
15307;SDS011;7755;52.208;6.964;2022-11-15T16:44:58;3.87;;;3.07;;
15307;SDS011;7755;52.208;6.964;2022-11-15T16:49:03;3.33;;;3.03;;
15307;SDS011;7755;52.208;6.964;2022-11-15T16:53:05;3.43;;;2.90;;
15307;SDS011;7755;52.208;6.964;2022-11-15T16:57:09;2.50;;;2.30;;
15307;SDS011;7755;52.208;6.964;2022-11-15T17:01:15;3.73;;;2.30;;
15307;SDS011;7755;52.208;6.964;2022-11-15T17:05:23;2.97;;;2.67;;
15307;SDS011;7755;52.208;6.964;2022-11-15T17:09:27;3.47;;;3.27;;
15307;SDS011;7755;52.208;6.964;2022-11-15T17:13:30;4.90;;;3.10;;
15307;SDS011;7755;52.208;6.964;2022-11-15T17:17:34;3.20;;;2.90;;
15307;SDS011;7755;52.208;6.964;2022-11-15T17:21:38;4.50;;;3.13;;
15307;SDS011;7755;52.208;6.964;2022-11-15T17:25:41;4.00;;;3.70;;
15307;SDS011;7755;52.208;6.964;2022-11-15T17:29:44;3.40;;;2.93;;
15307;SDS011;7755;52.208;6.964;2022-11-15T17:33:47;5.10;;;2.90;;
15307;SDS011;7755;52.208;6.964;2022-11-15T17:37:51;3.87;;;3.17;;
15307;SDS011;7755;52.208;6.964;2022-11-15T17:41:54;3.27;;;3.03;;
15307;SDS011;7755;52.208;6.964;2022-11-15T17:45:57;3.87;;;2.87;;
15307;SDS011;7755;52.208;6.964;2022-11-15T17:49:59;3.30;;;3.10;;
15307;SDS011;7755;52.208;6.964;2022-11-15T17:54:04;3.60;;;3.30;;
15307;SDS011;7755;52.208;6.964;2022-11-15T17:58:07;4.43;;;3.47;;
15307;SDS011;7755;52.208;6.964;2022-11-15T18:02:09;6.03;;;4.13;;
15307;SDS011;7755;52.208;6.964;2022-11-15T18:06:13;5.03;;;3.57;;
15307;SDS011;7755;52.208;6.964;2022-11-15T18:10:19;4.63;;;4.20;;
15307;SDS011;7755;52.208;6.964;2022-11-15T18:14:21;5.10;;;4.37;;
15307;SDS011;7755;52.208;6.964;2022-11-15T18:18:26;5.63;;;4.17;;
15307;SDS011;7755;52.208;6.964;2022-11-15T18:22:29;4.83;;;3.90;;
15307;SDS011;7755;52.208;6.964;2022-11-15T18:26:33;5.60;;;4.30;;
15307;SDS011;7755;52.208;6.964;2022-11-15T18:30:37;4.93;;;4.47;;
15307;SDS011;7755;52.208;6.964;2022-11-15T18:34:41;4.27;;;3.90;;
15307;SDS011;7755;52.208;6.964;2022-11-15T18:38:44;4.40;;;3.27;;
15307;SDS011;7755;52.208;6.964;2022-11-15T18:42:48;4.07;;;3.50;;
15307;SDS011;7755;52.208;6.964;2022-11-15T18:46:55;3.50;;;3.30;;
15307;SDS011;7755;52.208;6.964;2022-11-15T18:51:00;5.33;;;4.10;;
15307;SDS011;7755;52.208;6.964;2022-11-15T18:55:06;4.77;;;3.93;;
15307;SDS011;7755;52.208;6.964;2022-11-15T18:59:10;4.47;;;3.83;;
15307;SDS011;7755;52.208;6.964;2022-11-15T19:03:14;4.10;;;3.77;;
15307;SDS011;7755;52.208;6.964;2022-11-15T19:07:23;3.30;;;3.10;;
15307;SDS011;7755;52.208;6.964;2022-11-15T19:11:27;4.10;;;3.30;;
15307;SDS011;7755;52.208;6.964;2022-11-15T19:15:32;3.83;;;3.53;;
15307;SDS011;7755;52.208;6.964;2022-11-15T19:19:35;3.70;;;3.40;;
15307;SDS011;7755;52.208;6.964;2022-11-15T19:23:40;3.80;;;3.50;;
15307;SDS011;7755;52.208;6.964;2022-11-15T19:27:43;5.03;;;3.80;;
15307;SDS011;7755;52.208;6.964;2022-11-15T19:31:47;4.27;;;3.40;;
15307;SDS011;7755;52.208;6.964;2022-11-15T19:35:50;4.23;;;3.90;;
15307;SDS011;7755;52.208;6.964;2022-11-15T19:39:53;5.90;;;4.10;;
15307;SDS011;7755;52.208;6.964;2022-11-15T19:43:56;4.83;;;4.33;;
15307;SDS011;7755;52.208;6.964;2022-11-15T19:48:00;5.53;;;4.83;;
15307;SDS011;7755;52.208;6.964;2022-11-15T19:52:03;3.90;;;3.60;;
15307;SDS011;7755;52.208;6.964;2022-11-15T19:56:07;4.20;;;3.90;;
15307;SDS011;7755;52.208;6.964;2022-11-15T20:00:13;4.53;;;4.03;;
15307;SDS011;7755;52.208;6.964;2022-11-15T20:04:17;5.07;;;4.40;;
15307;SDS011;7755;52.208;6.964;2022-11-15T20:08:20;4.47;;;4.10;;
15307;SDS011;7755;52.208;6.964;2022-11-15T20:12:23;4.27;;;3.93;;
15307;SDS011;7755;52.208;6.964;2022-11-15T20:16:26;5.47;;;4.63;;
15307;SDS011;7755;52.208;6.964;2022-11-15T20:20:30;5.10;;;4.70;;
15307;SDS011;7755;52.208;6.964;2022-11-15T20:24:33;4.97;;;4.50;;
15307;SDS011;7755;52.208;6.964;2022-11-15T20:28:36;6.77;;;6.10;;
15307;SDS011;7755;52.208;6.964;2022-11-15T20:32:40;4.73;;;4.33;;
15307;SDS011;7755;52.208;6.964;2022-11-15T20:36:44;4.87;;;4.33;;
15307;SDS011;7755;52.208;6.964;2022-11-15T20:40:47;5.70;;;5.20;;
15307;SDS011;7755;52.208;6.964;2022-11-15T20:44:55;5.57;;;5.17;;
15307;SDS011;7755;52.208;6.964;2022-11-15T20:48:58;5.40;;;4.90;;
15307;SDS011;7755;52.208;6.964;2022-11-15T20:53:02;5.50;;;5.00;;
15307;SDS011;7755;52.208;6.964;2022-11-15T20:57:05;6.63;;;5.00;;
15307;SDS011;7755;52.208;6.964;2022-11-15T21:01:09;6.30;;;5.70;;
15307;SDS011;7755;52.208;6.964;2022-11-15T21:05:15;9.10;;;8.20;;
15307;SDS011;7755;52.208;6.964;2022-11-15T21:09:19;7.20;;;6.50;;
15307;SDS011;7755;52.208;6.964;2022-11-15T21:13:40;7.53;;;6.93;;
15307;SDS011;7755;52.208;6.964;2022-11-15T21:17:42;6.50;;;5.90;;
15307;SDS011;7755;52.208;6.964;2022-11-15T21:21:45;6.17;;;5.60;;
15307;SDS011;7755;52.208;6.964;2022-11-15T21:25:49;6.13;;;5.53;;
15307;SDS011;7755;52.208;6.964;2022-11-15T21:29:53;6.47;;;5.87;;
15307;SDS011;7755;52.208;6.964;2022-11-15T21:33:55;6.10;;;5.60;;
15307;SDS011;7755;52.208;6.964;2022-11-15T21:37:58;6.30;;;5.70;;
15307;SDS011;7755;52.208;6.964;2022-11-15T21:42:03;5.77;;;5.30;;
15307;SDS011;7755;52.208;6.964;2022-11-15T21:46:06;6.93;;;6.23;;
15307;SDS011;7755;52.208;6.964;2022-11-15T21:50:08;8.13;;;7.43;;
15307;SDS011;7755;52.208;6.964;2022-11-15T21:54:11;8.03;;;7.23;;
15307;SDS011;7755;52.208;6.964;2022-11-15T21:58:15;6.03;;;5.47;;
15307;SDS011;7755;52.208;6.964;2022-11-15T22:02:18;5.63;;;5.13;;
15307;SDS011;7755;52.208;6.964;2022-11-15T22:06:21;5.67;;;5.17;;
15307;SDS011;7755;52.208;6.964;2022-11-15T22:10:24;6.30;;;5.70;;
15307;SDS011;7755;52.208;6.964;2022-11-15T22:14:28;5.70;;;5.20;;
15307;SDS011;7755;52.208;6.964;2022-11-15T22:18:31;6.43;;;5.90;;
15307;SDS011;7755;52.208;6.964;2022-11-15T22:22:34;7.10;;;6.40;;
15307;SDS011;7755;52.208;6.964;2022-11-15T22:26:37;8.70;;;7.87;;
15307;SDS011;7755;52.208;6.964;2022-11-15T22:30:42;6.17;;;5.67;;
15307;SDS011;7755;52.208;6.964;2022-11-15T22:34:46;6.60;;;6.00;;
15307;SDS011;7755;52.208;6.964;2022-11-15T22:38:48;7.40;;;6.70;;
15307;SDS011;7755;52.208;6.964;2022-11-15T22:42:51;6.63;;;6.03;;
15307;SDS011;7755;52.208;6.964;2022-11-15T22:46:55;7.90;;;7.20;;
15307;SDS011;7755;52.208;6.964;2022-11-15T22:50:58;7.13;;;6.23;;
15307;SDS011;7755;52.208;6.964;2022-11-15T22:55:01;8.00;;;7.30;;
15307;SDS011;7755;52.208;6.964;2022-11-15T22:59:04;7.77;;;7.07;;
15307;SDS011;7755;52.208;6.964;2022-11-15T23:03:08;7.33;;;6.83;;
15307;SDS011;7755;52.208;6.964;2022-11-15T23:07:11;7.60;;;6.90;;
15307;SDS011;7755;52.208;6.964;2022-11-15T23:11:14;7.80;;;7.07;;
15307;SDS011;7755;52.208;6.964;2022-11-15T23:15:34;8.20;;;7.30;;
15307;SDS011;7755;52.208;6.964;2022-11-15T23:19:52;7.17;;;6.57;;
15307;SDS011;7755;52.208;6.964;2022-11-15T23:23:55;8.50;;;7.70;;
15307;SDS011;7755;52.208;6.964;2022-11-15T23:27:59;8.00;;;7.30;;
15307;SDS011;7755;52.208;6.964;2022-11-15T23:32:02;9.17;;;8.30;;
15307;SDS011;7755;52.208;6.964;2022-11-15T23:36:25;9.97;;;9.00;;
15307;SDS011;7755;52.208;6.964;2022-11-15T23:40:28;9.37;;;8.47;;
15307;SDS011;7755;52.208;6.964;2022-11-15T23:44:31;10.53;;;9.53;;
15307;SDS011;7755;52.208;6.964;2022-11-15T23:48:34;10.87;;;9.20;;
15307;SDS011;7755;52.208;6.964;2022-11-15T23:52:38;9.07;;;8.37;;
15307;SDS011;7755;52.208;6.964;2022-11-15T23:56:41;9.63;;;8.70;;
